createdAt,value
2023-03-27T00:00:56.741Z,8.10
2023-03-27T00:01:56.477Z,11.70
2023-03-27T00:02:56.496Z,9.70
2023-03-27T00:03:56.485Z,8.80
2023-03-27T00:04:56.434Z,10.00
2023-03-27T00:05:56.445Z,8.90
2023-03-27T00:06:56.415Z,8.80
2023-03-27T00:07:56.758Z,10.30
2023-03-27T00:08:56.415Z,11.90
2023-03-27T00:09:56.399Z,11.40
2023-03-27T00:10:56.526Z,9.60
2023-03-27T00:11:56.401Z,9.90
2023-03-27T00:12:56.372Z,7.90
2023-03-27T00:13:56.366Z,9.70
2023-03-27T00:14:56.356Z,8.80
2023-03-27T00:15:56.353Z,9.90
2023-03-27T00:16:56.385Z,12.00
2023-03-27T00:17:56.393Z,9.60
2023-03-27T00:18:56.330Z,12.00
2023-03-27T00:19:56.328Z,9.00
2023-03-27T00:20:56.503Z,8.10
2023-03-27T00:21:56.336Z,10.40
2023-03-27T00:22:56.454Z,10.00
2023-03-27T00:23:56.299Z,10.40
2023-03-27T00:24:56.290Z,9.90
2023-03-27T00:25:56.281Z,11.30
2023-03-27T00:26:56.288Z,10.20
2023-03-27T00:27:56.268Z,10.30
2023-03-27T00:28:56.263Z,8.70
2023-03-27T00:29:56.258Z,9.60
2023-03-27T00:30:56.426Z,9.50
2023-03-27T00:31:56.267Z,8.20
2023-03-27T00:32:56.318Z,10.20
2023-03-27T00:33:56.236Z,8.80
2023-03-27T00:34:56.219Z,9.10
2023-03-27T00:35:56.309Z,9.20
2023-03-27T00:36:56.222Z,8.40
2023-03-27T00:37:56.225Z,10.40
2023-03-27T00:38:56.198Z,9.60
2023-03-27T00:39:56.184Z,7.70
2023-03-27T00:40:56.516Z,9.20
2023-03-27T00:41:56.178Z,7.30
2023-03-27T00:42:56.173Z,7.90
2023-03-27T00:43:56.157Z,7.10
2023-03-27T00:44:56.152Z,10.90
2023-03-27T00:45:56.155Z,11.70
2023-03-27T00:46:56.139Z,8.70
2023-03-27T00:47:56.157Z,9.30
2023-03-27T00:48:56.133Z,10.10
2023-03-27T00:49:56.119Z,12.70
2023-03-27T00:50:56.291Z,10.80
2023-03-27T00:51:56.103Z,10.10
2023-03-27T00:52:56.097Z,10.20
2023-03-27T00:53:56.139Z,9.60
2023-03-27T00:54:56.089Z,13.60
2023-03-27T00:55:56.076Z,10.70
2023-03-27T00:56:56.085Z,12.70
2023-03-27T00:57:56.062Z,12.50
2023-03-27T00:58:56.065Z,11.60
2023-03-27T00:59:56.050Z,9.30
2023-03-27T01:00:56.261Z,12.50
2023-03-27T01:01:56.131Z,13.80
2023-03-27T01:02:56.178Z,9.90
2023-03-27T01:03:56.067Z,12.30
2023-03-27T01:04:56.018Z,10.20
2023-03-27T01:05:56.008Z,9.80
2023-03-27T01:06:56.009Z,11.50
2023-03-27T01:08:00.683Z,7.80
2023-03-27T01:08:55.987Z,10.80
2023-03-27T01:09:56.001Z,12.30
2023-03-27T01:10:56.127Z,11.30
2023-03-27T01:11:55.965Z,12.20
2023-03-27T01:12:55.964Z,11.10
2023-03-27T01:13:55.953Z,12.00
2023-03-27T01:14:55.946Z,11.70
2023-03-27T01:15:55.992Z,13.50
2023-03-27T01:16:55.932Z,10.00
2023-03-27T01:17:55.974Z,9.50
2023-03-27T01:18:55.915Z,10.30
2023-03-27T01:19:55.909Z,9.70
2023-03-27T01:20:56.123Z,10.90
2023-03-27T01:21:55.898Z,10.60
2023-03-27T01:22:55.889Z,11.10
2023-03-27T01:23:59.518Z,10.70
2023-03-27T01:24:55.890Z,9.00
2023-03-27T01:25:55.896Z,9.50
2023-03-27T01:26:55.867Z,10.80
2023-03-27T01:27:55.855Z,10.90
2023-03-27T01:28:55.848Z,10.90
2023-03-27T01:29:55.845Z,11.80
2023-03-27T01:30:55.964Z,9.90
2023-03-27T01:31:55.827Z,12.00
2023-03-27T01:32:55.894Z,9.80
2023-03-27T01:33:55.818Z,10.30
2023-03-27T01:35:01.236Z,9.50
2023-03-27T01:35:55.821Z,8.30
2023-03-27T01:36:55.792Z,8.90
2023-03-27T01:37:55.807Z,7.70
2023-03-27T01:38:55.786Z,8.60
2023-03-27T01:39:55.776Z,11.90
2023-03-27T01:40:55.950Z,10.30
2023-03-27T01:41:55.778Z,8.60
2023-03-27T01:42:55.776Z,13.40
2023-03-27T01:43:55.746Z,10.10
2023-03-27T01:44:55.740Z,11.30
2023-03-27T01:45:55.734Z,10.60
2023-03-27T01:46:55.761Z,9.90
2023-03-27T01:47:55.771Z,7.80
2023-03-27T01:48:55.713Z,7.50
2023-03-27T01:49:55.707Z,8.70
2023-03-27T01:50:55.866Z,8.90
2023-03-27T01:51:55.692Z,10.60
2023-03-27T01:52:55.696Z,8.50
2023-03-27T01:53:55.678Z,13.20
2023-03-27T01:54:55.686Z,11.70
2023-03-27T01:55:55.666Z,11.80
2023-03-27T01:56:55.678Z,11.00
2023-03-27T01:57:55.673Z,11.10
2023-03-27T01:58:55.646Z,11.90
2023-03-27T01:59:55.653Z,9.10
2023-03-27T02:00:55.664Z,9.10
2023-03-27T02:01:55.624Z,10.40
2023-03-27T02:02:55.665Z,11.10
2023-03-27T02:03:55.609Z,10.60
2023-03-27T02:04:55.664Z,11.00
2023-03-27T02:05:55.596Z,10.30
2023-03-27T02:06:55.597Z,12.10
2023-03-27T02:07:55.603Z,14.40
2023-03-27T02:08:55.579Z,12.50
2023-03-27T02:09:55.575Z,10.80
2023-03-27T02:10:55.745Z,10.90
2023-03-27T02:11:55.555Z,10.10
2023-03-27T02:12:55.551Z,10.20
2023-03-27T02:13:55.568Z,14.30
2023-03-27T02:14:55.541Z,8.50
2023-03-27T02:15:55.567Z,8.50
2023-03-27T02:16:55.528Z,10.00
2023-03-27T02:17:55.549Z,11.60
2023-03-27T02:18:55.510Z,14.10
2023-03-27T02:19:55.509Z,14.10
2023-03-27T02:20:55.684Z,9.40
2023-03-27T02:21:55.486Z,10.70
2023-03-27T02:22:55.489Z,11.30
2023-03-27T02:23:55.473Z,11.10
2023-03-27T02:24:55.474Z,13.50
2023-03-27T02:25:55.464Z,11.40
2023-03-27T02:26:55.482Z,10.50
2023-03-27T02:27:55.446Z,10.30
2023-03-27T02:28:55.448Z,11.40
2023-03-27T02:29:55.489Z,11.30
2023-03-27T02:31:06.647Z,9.30
2023-03-27T02:31:55.489Z,9.40
2023-03-27T02:32:55.452Z,9.80
2023-03-27T02:33:55.410Z,11.20
2023-03-27T02:34:55.400Z,9.30
2023-03-27T02:35:55.440Z,9.60
2023-03-27T02:36:55.469Z,13.40
2023-03-27T02:37:55.379Z,14.10
2023-03-27T02:38:55.378Z,11.20
2023-03-27T02:39:55.370Z,12.30
2023-03-27T02:40:55.687Z,12.40
2023-03-27T02:41:55.350Z,10.10
2023-03-27T02:42:55.346Z,10.30
2023-03-27T02:43:55.335Z,9.70
2023-03-27T02:44:55.331Z,11.20
2023-03-27T02:45:55.428Z,11.30
2023-03-27T02:46:55.321Z,9.70
2023-03-27T02:47:55.326Z,9.20
2023-03-27T02:48:55.302Z,8.60
2023-03-27T02:49:55.306Z,10.60
2023-03-27T02:50:55.560Z,8.80
2023-03-27T02:51:55.282Z,12.60
2023-03-27T02:52:55.284Z,14.30
2023-03-27T02:53:55.267Z,9.60
2023-03-27T02:54:55.265Z,10.70
2023-03-27T02:55:55.254Z,9.10
2023-03-27T02:56:55.319Z,9.50
2023-03-27T02:57:55.244Z,11.60
2023-03-27T02:58:55.234Z,12.10
2023-03-27T02:59:55.229Z,12.70
2023-03-27T03:00:55.547Z,10.60
2023-03-27T03:01:55.348Z,12.30
2023-03-27T03:02:55.274Z,13.40
2023-03-27T03:03:55.199Z,12.10
2023-03-27T03:04:55.193Z,9.30
2023-03-27T03:05:55.186Z,9.70
2023-03-27T03:06:55.184Z,9.60
2023-03-27T03:07:55.173Z,8.20
2023-03-27T03:08:55.166Z,8.30
2023-03-27T03:09:55.159Z,11.80
2023-03-27T03:10:55.370Z,11.00
2023-03-27T03:11:55.148Z,11.40
2023-03-27T03:12:55.394Z,14.40
2023-03-27T03:13:55.141Z,11.50
2023-03-27T03:14:55.130Z,10.80
2023-03-27T03:15:55.121Z,12.10
2023-03-27T03:16:55.131Z,8.90
2023-03-27T03:17:55.238Z,9.80
2023-03-27T03:18:55.098Z,11.50
2023-03-27T03:19:55.092Z,12.10
2023-03-27T03:20:55.283Z,9.70
2023-03-27T03:21:55.084Z,11.90
2023-03-27T03:22:55.069Z,9.70
2023-03-27T03:23:58.099Z,9.60
2023-03-27T03:24:55.056Z,10.30
2023-03-27T03:25:55.049Z,11.90
2023-03-27T03:26:55.040Z,12.40
2023-03-27T03:27:55.030Z,9.50
2023-03-27T03:29:00.292Z,11.70
2023-03-27T03:29:55.022Z,11.90
2023-03-27T03:30:55.338Z,10.00
2023-03-27T03:31:55.005Z,13.20
2023-03-27T03:32:55.090Z,11.50
2023-03-27T03:33:55.014Z,10.00
2023-03-27T03:34:54.984Z,11.00
2023-03-27T03:35:55.036Z,10.80
2023-03-27T03:36:54.975Z,9.90
2023-03-27T03:37:54.975Z,13.70
2023-03-27T03:38:54.960Z,10.70
2023-03-27T03:39:54.947Z,8.90
2023-03-27T03:40:55.470Z,7.50
2023-03-27T03:41:54.934Z,9.30
2023-03-27T03:42:54.935Z,10.00
2023-03-27T03:43:54.924Z,8.20
2023-03-27T03:44:54.918Z,8.00
2023-03-27T03:45:54.951Z,6.50
2023-03-27T03:46:54.900Z,6.90
2023-03-27T03:47:54.894Z,8.10
2023-03-27T03:48:54.904Z,8.30
2023-03-27T03:49:55.014Z,6.80
2023-03-27T03:50:55.169Z,11.00
2023-03-27T03:52:03.702Z,8.70
2023-03-27T03:52:54.863Z,8.50
2023-03-27T03:53:54.872Z,7.60
2023-03-27T03:54:54.849Z,8.10
2023-03-27T03:55:54.835Z,6.60
2023-03-27T03:56:54.859Z,7.70
2023-03-27T03:57:54.822Z,8.60
2023-03-27T03:58:54.816Z,8.40
2023-03-27T03:59:54.813Z,8.90
2023-03-27T04:00:55.069Z,14.00
2023-03-27T04:01:54.809Z,10.70
2023-03-27T04:02:54.892Z,9.00
2023-03-27T04:03:54.798Z,10.10
2023-03-27T04:04:54.781Z,10.00
2023-03-27T04:05:54.824Z,11.20
2023-03-27T04:06:54.759Z,10.10
2023-03-27T04:07:54.746Z,9.60
2023-03-27T04:08:54.746Z,11.20
2023-03-27T04:09:54.734Z,10.70
2023-03-27T04:10:54.961Z,10.20
2023-03-27T04:11:54.734Z,10.70
2023-03-27T04:12:54.739Z,11.70
2023-03-27T04:13:54.911Z,13.80
2023-03-27T04:14:54.708Z,10.40
2023-03-27T04:15:54.712Z,9.90
2023-03-27T04:16:54.685Z,9.30
2023-03-27T04:17:54.770Z,9.30
2023-03-27T04:18:54.823Z,11.80
2023-03-27T04:19:54.663Z,13.40
2023-03-27T04:20:54.788Z,10.00
2023-03-27T04:21:54.669Z,7.00
2023-03-27T04:22:54.650Z,10.10
2023-03-27T04:23:54.637Z,10.70
2023-03-27T04:24:54.635Z,11.20
2023-03-27T04:25:54.642Z,10.10
2023-03-27T04:26:54.620Z,8.60
2023-03-27T04:27:54.614Z,8.40
2023-03-27T04:28:54.604Z,8.20
2023-03-27T04:29:54.596Z,10.40
2023-03-27T04:30:54.699Z,9.80
2023-03-27T04:31:54.581Z,9.70
2023-03-27T04:32:54.664Z,11.20
2023-03-27T04:33:54.576Z,8.60
2023-03-27T04:34:54.586Z,9.80
2023-03-27T04:36:06.178Z,10.80
2023-03-27T04:36:54.547Z,11.50
2023-03-27T04:37:54.645Z,8.10
2023-03-27T04:38:54.545Z,8.50
2023-03-27T04:39:54.543Z,7.80
2023-03-27T04:40:54.657Z,10.30
2023-03-27T04:41:54.520Z,10.10
2023-03-27T04:42:54.510Z,9.40
2023-03-27T04:43:54.502Z,8.10
2023-03-27T04:44:54.498Z,9.60
2023-03-27T04:45:54.493Z,8.40
2023-03-27T04:46:54.521Z,6.80
2023-03-27T04:47:54.684Z,8.80
2023-03-27T04:48:54.467Z,7.50
2023-03-27T04:49:54.459Z,7.90
2023-03-27T04:50:54.699Z,6.70
2023-03-27T04:51:54.460Z,11.10
2023-03-27T04:52:54.442Z,6.30
2023-03-27T04:53:54.505Z,9.80
2023-03-27T04:54:54.432Z,8.10
2023-03-27T04:55:54.419Z,10.50
2023-03-27T04:56:54.447Z,10.60
2023-03-27T04:57:54.411Z,9.40
2023-03-27T04:58:54.400Z,9.20
2023-03-27T04:59:54.396Z,10.40
2023-03-27T05:00:54.505Z,7.20
2023-03-27T05:01:54.388Z,7.00
2023-03-27T05:02:54.440Z,11.10
2023-03-27T05:03:54.383Z,5.60
2023-03-27T05:04:54.356Z,6.50
2023-03-27T05:05:54.348Z,7.10
2023-03-27T05:06:54.347Z,8.20
2023-03-27T05:07:54.337Z,7.60
2023-03-27T05:08:54.326Z,7.40
2023-03-27T05:09:54.335Z,8.10
2023-03-27T05:10:54.444Z,11.10
2023-03-27T05:11:54.307Z,8.70
2023-03-27T05:12:55.805Z,9.90
2023-03-27T05:13:54.688Z,13.90
2023-03-27T05:14:54.288Z,9.40
2023-03-27T05:15:54.278Z,10.30
2023-03-27T05:16:54.285Z,8.90
2023-03-27T05:17:54.356Z,9.50
2023-03-27T05:18:54.258Z,8.80
2023-03-27T05:19:54.258Z,10.30
2023-03-27T05:20:54.316Z,6.10
2023-03-27T05:21:54.240Z,8.60
2023-03-27T05:22:54.250Z,10.30
2023-03-27T05:23:54.222Z,10.70
2023-03-27T05:24:54.214Z,9.40
2023-03-27T05:26:00.363Z,7.70
2023-03-27T05:26:54.203Z,8.50
2023-03-27T05:27:54.197Z,6.60
2023-03-27T05:28:54.194Z,6.90
2023-03-27T05:29:54.182Z,6.80
2023-03-27T05:30:54.258Z,8.50
2023-03-27T05:31:54.163Z,7.70
2023-03-27T05:32:54.355Z,10.70
2023-03-27T05:33:54.170Z,7.30
2023-03-27T05:34:54.157Z,9.60
2023-03-27T05:35:54.184Z,8.10
2023-03-27T05:36:54.131Z,6.40
2023-03-27T05:37:54.126Z,6.50
2023-03-27T05:38:54.124Z,7.90
2023-03-27T05:39:54.109Z,8.50
2023-03-27T05:40:54.211Z,8.90
2023-03-27T05:41:54.230Z,8.50
2023-03-27T05:42:54.097Z,10.70
2023-03-27T05:43:54.087Z,8.00
2023-03-27T05:44:54.072Z,6.20
2023-03-27T05:45:54.140Z,8.70
2023-03-27T05:46:54.058Z,8.10
2023-03-27T05:47:54.086Z,9.60
2023-03-27T05:48:54.048Z,8.80
2023-03-27T05:49:54.039Z,6.70
2023-03-27T05:50:54.272Z,7.20
2023-03-27T05:51:54.059Z,7.90
2023-03-27T05:52:54.024Z,6.40
2023-03-27T05:53:54.012Z,7.30
2023-03-27T05:54:54.012Z,6.60
2023-03-27T05:56:02.664Z,6.00
2023-03-27T05:56:54.028Z,7.50
2023-03-27T05:57:54.004Z,8.70
2023-03-27T05:58:53.981Z,8.80
2023-03-27T05:59:53.975Z,7.90
2023-03-27T06:00:54.159Z,8.00
2023-03-27T06:01:53.961Z,10.70
2023-03-27T06:02:54.005Z,9.20
2023-03-27T06:03:54.046Z,9.50
2023-03-27T06:04:53.943Z,10.30
2023-03-27T06:05:53.936Z,8.60
2023-03-27T06:06:53.934Z,8.60
2023-03-27T06:07:53.921Z,8.80
2023-03-27T06:08:53.913Z,9.50
2023-03-27T06:09:53.908Z,9.80
2023-03-27T06:10:53.943Z,8.90
2023-03-27T06:11:53.891Z,8.30
2023-03-27T06:12:53.886Z,8.30
2023-03-27T06:13:53.935Z,9.30
2023-03-27T06:14:53.876Z,8.80
2023-03-27T06:15:53.953Z,8.70
2023-03-27T06:16:53.856Z,11.80
2023-03-27T06:17:53.862Z,9.60
2023-03-27T06:18:53.857Z,12.80
2023-03-27T06:19:53.838Z,10.00
2023-03-27T06:20:53.889Z,8.80
2023-03-27T06:21:53.827Z,11.70
2023-03-27T06:22:53.819Z,10.80
2023-03-27T06:23:53.809Z,11.90
2023-03-27T06:24:53.809Z,10.90
2023-03-27T06:25:53.819Z,9.40
2023-03-27T06:26:53.790Z,8.70
2023-03-27T06:27:53.814Z,10.70
2023-03-27T06:28:53.779Z,8.10
2023-03-27T06:29:53.796Z,9.20
2023-03-27T06:30:53.900Z,10.40
2023-03-27T06:31:53.773Z,9.90
2023-03-27T06:32:53.783Z,7.90
2023-03-27T06:33:53.747Z,9.20
2023-03-27T06:34:53.735Z,10.40
2023-03-27T06:35:53.897Z,10.10
2023-03-27T06:36:53.728Z,11.40
2023-03-27T06:37:53.724Z,9.10
2023-03-27T06:38:53.714Z,11.50
2023-03-27T06:39:53.702Z,8.70
2023-03-27T06:40:53.702Z,10.70
2023-03-27T06:41:53.702Z,12.00
2023-03-27T06:42:53.688Z,9.50
2023-03-27T06:43:53.677Z,10.00
2023-03-27T06:44:53.671Z,11.80
2023-03-27T06:45:53.724Z,12.70
2023-03-27T06:46:53.688Z,10.60
2023-03-27T06:47:55.597Z,12.90
2023-03-27T06:48:53.682Z,10.30
2023-03-27T06:49:53.639Z,10.90
2023-03-27T06:50:53.631Z,10.00
2023-03-27T06:51:53.625Z,13.70
2023-03-27T06:52:53.632Z,9.90
2023-03-27T06:53:53.618Z,13.60
2023-03-27T06:54:53.604Z,10.00
2023-03-27T06:55:53.620Z,10.10
2023-03-27T06:56:53.641Z,9.90
2023-03-27T06:57:53.586Z,8.20
2023-03-27T06:58:53.578Z,11.80
2023-03-27T06:59:53.580Z,9.60
2023-03-27T07:00:53.566Z,9.60
2023-03-27T07:01:53.626Z,9.60
2023-03-27T07:02:53.591Z,8.70
2023-03-27T07:03:53.543Z,9.40
2023-03-27T07:05:03.775Z,10.00
2023-03-27T07:05:53.608Z,12.00
2023-03-27T07:06:53.515Z,10.40
2023-03-27T07:07:53.509Z,8.50
2023-03-27T07:08:53.500Z,10.30
2023-03-27T07:09:53.495Z,8.60
2023-03-27T07:11:09.946Z,8.50
2023-03-27T07:11:53.480Z,8.70
2023-03-27T07:12:53.508Z,10.40
2023-03-27T07:13:53.487Z,8.10
2023-03-27T07:14:53.458Z,7.60
2023-03-27T07:15:53.511Z,9.50
2023-03-27T07:16:53.476Z,9.40
2023-03-27T07:17:53.499Z,12.00
2023-03-27T07:18:53.430Z,8.90
2023-03-27T07:19:53.427Z,7.40
2023-03-27T07:20:53.432Z,7.70
2023-03-27T07:21:53.418Z,9.00
2023-03-27T07:22:55.526Z,9.20
2023-03-27T07:23:53.401Z,7.60
2023-03-27T07:24:53.389Z,6.80
2023-03-27T07:25:53.402Z,7.80
2023-03-27T07:26:53.377Z,8.20
2023-03-27T07:27:53.371Z,7.00
2023-03-27T07:28:53.362Z,6.00
2023-03-27T07:29:54.371Z,9.00
2023-03-27T07:30:53.366Z,8.70
2023-03-27T07:31:57.556Z,8.80
2023-03-27T07:32:53.397Z,6.10
2023-03-27T07:33:53.412Z,6.30
2023-03-27T07:34:53.334Z,6.70
2023-03-27T07:35:53.453Z,8.30
2023-03-27T07:36:53.667Z,7.60
2023-03-27T07:37:53.316Z,7.30
2023-03-27T07:38:53.319Z,6.10
2023-03-27T07:39:53.297Z,6.20
2023-03-27T07:40:53.295Z,7.50
2023-03-27T07:41:53.283Z,6.30
2023-03-27T07:42:53.283Z,6.50
2023-03-27T07:43:53.283Z,5.00
2023-03-27T07:44:53.263Z,5.80
2023-03-27T07:45:53.305Z,7.20
2023-03-27T07:46:53.254Z,7.10
2023-03-27T07:47:53.314Z,6.40
2023-03-27T07:48:53.247Z,6.50
2023-03-27T07:49:53.255Z,5.60
2023-03-27T07:50:56.091Z,5.00
2023-03-27T07:51:53.234Z,5.70
2023-03-27T07:52:53.218Z,5.50
2023-03-27T07:53:53.213Z,5.00
2023-03-27T07:54:53.222Z,6.10
2023-03-27T07:55:53.209Z,5.20
2023-03-27T07:56:53.276Z,5.40
2023-03-27T07:58:53.226Z,5.60
2023-03-27T07:59:53.181Z,5.50
2023-03-27T08:00:53.232Z,6.10
2023-03-27T08:01:53.169Z,5.60
2023-03-27T08:02:53.390Z,5.70
2023-03-27T08:03:53.282Z,4.90
2023-03-27T08:04:53.315Z,5.30
2023-03-27T08:05:53.167Z,4.40
2023-03-27T08:06:53.158Z,4.50
2023-03-27T08:07:53.136Z,6.40
2023-03-27T08:08:53.136Z,7.50
2023-03-27T08:09:53.128Z,5.00
2023-03-27T08:10:53.120Z,5.80
2023-03-27T08:11:53.115Z,7.00
2023-03-27T08:12:53.108Z,5.30
2023-03-27T08:13:53.107Z,5.90
2023-03-27T08:14:53.102Z,6.70
2023-03-27T08:15:53.117Z,7.20
2023-03-27T08:16:55.829Z,6.50
2023-03-27T08:17:53.092Z,8.10
2023-03-27T08:18:53.077Z,6.60
2023-03-27T08:19:53.074Z,7.10
2023-03-27T08:20:53.071Z,7.00
2023-03-27T08:21:53.100Z,8.60
2023-03-27T08:22:53.064Z,8.90
2023-03-27T08:23:53.046Z,8.60
2023-03-27T08:24:53.039Z,8.70
2023-03-27T08:25:53.118Z,7.40
2023-03-27T08:26:53.037Z,9.00
2023-03-27T08:27:53.020Z,6.90
2023-03-27T08:28:53.017Z,5.60
2023-03-27T08:29:53.012Z,6.80
2023-03-27T08:30:53.047Z,5.30
2023-03-27T08:31:53.002Z,5.50
2023-03-27T08:32:53.010Z,6.40
2023-03-27T08:33:52.986Z,7.60
2023-03-27T08:34:52.978Z,6.60
2023-03-27T08:35:53.014Z,5.70
2023-03-27T08:36:52.966Z,5.80
2023-03-27T08:37:52.985Z,4.80
2023-03-27T08:38:52.954Z,4.40
2023-03-27T08:39:52.949Z,5.30
2023-03-27T08:40:52.966Z,5.20
2023-03-27T08:41:53.136Z,5.00
2023-03-27T08:42:52.942Z,8.00
2023-03-27T08:43:52.936Z,5.40
2023-03-27T08:44:52.923Z,6.50
2023-03-27T08:45:53.023Z,6.00
2023-03-27T08:46:52.967Z,4.70
2023-03-27T08:47:52.926Z,5.40
2023-03-27T08:48:52.904Z,4.10
2023-03-27T08:49:52.888Z,6.10
2023-03-27T08:50:52.885Z,4.80
2023-03-27T08:51:52.876Z,6.50
2023-03-27T08:52:52.880Z,7.30
2023-03-27T08:53:52.890Z,6.40
2023-03-27T08:54:52.856Z,6.00
2023-03-27T08:55:52.848Z,4.30
2023-03-27T08:56:52.967Z,4.90
2023-03-27T08:57:52.868Z,6.80
2023-03-27T08:58:52.828Z,5.20
2023-03-27T08:59:52.824Z,7.30
2023-03-27T09:00:52.816Z,6.50
2023-03-27T09:01:52.905Z,5.90
2023-03-27T09:02:52.883Z,6.40
2023-03-27T09:03:52.854Z,7.80
2023-03-27T09:04:52.792Z,5.00
2023-03-27T09:05:52.788Z,6.00
2023-03-27T09:06:52.781Z,6.40
2023-03-27T09:07:52.778Z,6.60
2023-03-27T09:08:52.763Z,6.80
2023-03-27T09:09:52.817Z,8.70
2023-03-27T09:10:52.754Z,5.10
2023-03-27T09:11:52.750Z,6.60
2023-03-27T09:12:52.750Z,7.70
2023-03-27T09:13:52.766Z,6.30
2023-03-27T09:14:52.730Z,6.20
2023-03-27T09:15:52.854Z,4.40
2023-03-27T09:16:52.713Z,4.90
2023-03-27T09:17:52.799Z,4.60
2023-03-27T09:18:52.705Z,5.80
2023-03-27T09:19:52.698Z,8.20
2023-03-27T09:20:52.693Z,6.70
2023-03-27T09:21:52.756Z,5.90
2023-03-27T09:22:52.701Z,7.00
2023-03-27T09:23:52.666Z,5.60
2023-03-27T09:24:52.655Z,7.90
2023-03-27T09:25:52.670Z,6.60
2023-03-27T09:27:04.453Z,4.50
2023-03-27T09:27:52.639Z,4.10
2023-03-27T09:28:52.629Z,6.90
2023-03-27T09:29:52.625Z,6.70
2023-03-27T09:30:52.619Z,5.80
2023-03-27T09:31:52.642Z,8.20
2023-03-27T09:32:52.626Z,8.30
2023-03-27T09:33:52.600Z,8.70
2023-03-27T09:34:52.589Z,6.20
2023-03-27T09:35:52.710Z,4.80
2023-03-27T09:36:52.582Z,6.10
2023-03-27T09:37:52.606Z,6.50
2023-03-27T09:38:52.568Z,6.20
2023-03-27T09:39:52.663Z,7.70
2023-03-27T09:40:52.575Z,8.30
2023-03-27T09:41:52.590Z,6.10
2023-03-27T09:42:52.544Z,7.20
2023-03-27T09:43:52.574Z,6.60
2023-03-27T09:44:52.564Z,6.80
2023-03-27T09:45:52.548Z,4.10
2023-03-27T09:46:52.564Z,7.70
2023-03-27T09:47:52.596Z,5.70
2023-03-27T09:48:52.543Z,4.70
2023-03-27T09:49:52.495Z,5.60
2023-03-27T09:50:52.482Z,6.60
2023-03-27T09:51:52.499Z,5.40
2023-03-27T09:52:52.480Z,5.90
2023-03-27T09:53:52.485Z,7.20
2023-03-27T09:54:52.459Z,6.30
2023-03-27T09:55:52.456Z,4.40
2023-03-27T09:56:52.531Z,6.30
2023-03-27T09:57:52.485Z,5.10
2023-03-27T09:58:52.432Z,7.10
2023-03-27T09:59:52.428Z,6.00
2023-03-27T10:00:52.440Z,6.30
2023-03-27T10:01:52.415Z,6.60
2023-03-27T10:02:52.467Z,5.90
2023-03-27T10:03:52.429Z,5.80
2023-03-27T10:04:52.397Z,5.60
2023-03-27T10:05:52.396Z,5.40
2023-03-27T10:06:52.398Z,5.80
2023-03-27T10:07:52.378Z,5.80
2023-03-27T10:08:52.387Z,5.10
2023-03-27T10:09:52.461Z,6.50
2023-03-27T10:10:52.359Z,7.10
2023-03-27T10:11:52.398Z,5.60
2023-03-27T10:12:52.344Z,7.20
2023-03-27T10:13:52.368Z,5.60
2023-03-27T10:14:52.833Z,7.80
2023-03-27T10:15:52.327Z,7.20
2023-03-27T10:16:52.383Z,5.10
2023-03-27T10:17:52.359Z,7.10
2023-03-27T10:18:52.312Z,6.00
2023-03-27T10:19:52.290Z,4.90
2023-03-27T10:20:52.292Z,4.40
2023-03-27T10:21:52.284Z,6.20
2023-03-27T10:22:54.484Z,6.00
2023-03-27T10:23:52.262Z,5.80
2023-03-27T10:24:52.271Z,6.60
2023-03-27T10:25:52.249Z,6.80
2023-03-27T10:26:52.252Z,5.90
2023-03-27T10:27:52.245Z,6.70
2023-03-27T10:28:52.240Z,5.80
2023-03-27T10:29:52.243Z,5.10
2023-03-27T10:30:52.223Z,5.50
2023-03-27T10:31:52.284Z,5.40
2023-03-27T10:32:52.297Z,4.00
2023-03-27T10:33:52.214Z,5.60
2023-03-27T10:34:52.188Z,7.20
2023-03-27T10:35:52.215Z,5.60
2023-03-27T10:36:52.175Z,5.70
2023-03-27T10:37:52.196Z,4.70
2023-03-27T10:38:52.209Z,4.20
2023-03-27T10:39:52.158Z,7.40
2023-03-27T10:40:52.153Z,5.30
2023-03-27T10:41:52.150Z,4.30
2023-03-27T10:42:52.136Z,4.50
2023-03-27T10:43:52.132Z,5.50
2023-03-27T10:44:52.125Z,6.40
2023-03-27T10:45:52.203Z,6.20
2023-03-27T10:46:52.512Z,7.50
2023-03-27T10:47:52.175Z,4.40
2023-03-27T10:48:52.109Z,5.00
2023-03-27T10:49:52.090Z,4.30
2023-03-27T10:50:52.085Z,4.90
2023-03-27T10:51:52.075Z,5.40
2023-03-27T10:52:52.096Z,5.50
2023-03-27T10:53:52.290Z,4.90
2023-03-27T10:54:52.059Z,5.40
2023-03-27T10:55:52.075Z,4.90
2023-03-27T10:56:52.105Z,5.50
2023-03-27T10:57:52.035Z,5.70
2023-03-27T10:58:52.063Z,5.10
2023-03-27T10:59:52.026Z,6.80
2023-03-27T11:00:52.014Z,6.70
2023-03-27T11:01:52.061Z,5.60
2023-03-27T11:02:52.041Z,4.00
2023-03-27T11:03:52.090Z,4.30
2023-03-27T11:04:51.988Z,5.60
2023-03-27T11:05:51.995Z,4.00
2023-03-27T11:06:51.977Z,5.50
2023-03-27T11:07:51.963Z,5.20
2023-03-27T11:08:51.968Z,4.30
2023-03-27T11:09:51.955Z,6.10
2023-03-27T11:10:51.943Z,3.60
2023-03-27T11:11:51.935Z,4.90
2023-03-27T11:12:51.933Z,3.70
2023-03-27T11:13:51.930Z,4.20
2023-03-27T11:14:51.917Z,5.70
2023-03-27T11:15:51.904Z,5.60
2023-03-27T11:16:51.927Z,5.10
2023-03-27T11:17:51.984Z,5.80
2023-03-27T11:18:51.888Z,3.80
2023-03-27T11:19:51.879Z,5.20
2023-03-27T11:20:51.876Z,4.30
2023-03-27T11:21:51.863Z,5.40
2023-03-27T11:22:51.857Z,5.30
2023-03-27T11:23:51.899Z,5.50
2023-03-27T11:24:51.848Z,6.40
2023-03-27T11:25:51.864Z,5.30
2023-03-27T11:26:51.829Z,7.80
2023-03-27T11:27:51.824Z,6.10
2023-03-27T11:28:51.818Z,6.50
2023-03-27T11:29:51.808Z,6.20
2023-03-27T11:30:51.817Z,7.00
2023-03-27T11:31:51.882Z,6.00
2023-03-27T11:32:51.805Z,5.10
2023-03-27T11:33:51.804Z,5.00
2023-03-27T11:34:51.775Z,3.20
2023-03-27T11:35:51.827Z,4.50
2023-03-27T11:36:51.762Z,3.90
2023-03-27T11:37:51.755Z,3.20
2023-03-27T11:38:51.751Z,3.80
2023-03-27T11:39:51.744Z,2.90
2023-03-27T11:40:51.739Z,2.60
2023-03-27T11:41:51.732Z,3.60
2023-03-27T11:42:51.726Z,4.20
2023-03-27T11:43:51.717Z,3.30
2023-03-27T11:44:51.713Z,3.10
2023-03-27T11:45:51.737Z,2.90
2023-03-27T11:46:51.697Z,3.20
2023-03-27T11:47:51.747Z,2.40
2023-03-27T11:48:51.684Z,3.60
2023-03-27T11:49:51.699Z,2.10
2023-03-27T11:50:51.681Z,3.50
2023-03-27T11:51:52.121Z,2.40
2023-03-27T11:52:51.662Z,1.90
2023-03-27T11:53:51.648Z,2.90
2023-03-27T11:54:51.643Z,2.90
2023-03-27T11:55:51.633Z,2.70
2023-03-27T11:56:51.669Z,3.20
2023-03-27T11:57:51.639Z,3.50
2023-03-27T11:58:51.630Z,2.10
2023-03-27T11:59:51.619Z,2.90
2023-03-27T12:00:51.604Z,2.30
2023-03-27T12:01:51.636Z,2.90
2023-03-27T12:02:51.636Z,3.90
2023-03-27T12:03:51.664Z,2.20
2023-03-27T12:04:51.575Z,3.30
2023-03-27T12:05:51.594Z,2.10
2023-03-27T12:06:51.557Z,2.80
2023-03-27T12:07:51.572Z,1.90
2023-03-27T12:08:51.551Z,2.50
2023-03-27T12:09:51.538Z,2.40
2023-03-27T12:10:51.539Z,2.90
2023-03-27T12:11:51.525Z,3.60
2023-03-27T12:12:51.517Z,3.50
2023-03-27T12:14:01.188Z,2.20
2023-03-27T12:14:51.509Z,3.20
2023-03-27T12:15:51.508Z,2.70
2023-03-27T12:16:51.512Z,1.90
2023-03-27T12:17:51.532Z,2.60
2023-03-27T12:19:02.213Z,3.00
2023-03-27T12:19:51.469Z,2.90
2023-03-27T12:20:53.563Z,2.90
2023-03-27T12:21:51.489Z,2.70
2023-03-27T12:22:51.460Z,2.70
2023-03-27T12:23:51.443Z,3.40
2023-03-27T12:24:59.285Z,2.80
2023-03-27T12:25:51.436Z,2.40
2023-03-27T12:26:51.430Z,2.30
2023-03-27T12:27:51.416Z,2.20
2023-03-27T12:28:51.436Z,2.60
2023-03-27T12:29:51.405Z,3.10
2023-03-27T12:30:51.399Z,2.40
2023-03-27T12:31:51.493Z,3.60
2023-03-27T12:32:53.338Z,2.50
2023-03-27T12:33:51.377Z,3.40
2023-03-27T12:34:51.379Z,3.10
2023-03-27T12:35:51.470Z,3.30
2023-03-27T12:36:51.355Z,4.00
2023-03-27T12:37:51.383Z,3.20
2023-03-27T12:38:51.355Z,3.20
2023-03-27T12:39:52.010Z,3.10
2023-03-27T12:40:51.335Z,2.70
2023-03-27T12:41:51.324Z,1.30
2023-03-27T12:42:51.319Z,1.40
2023-03-27T12:43:51.314Z,2.70
2023-03-27T12:44:51.304Z,1.00
2023-03-27T12:45:53.643Z,1.40
2023-03-27T12:46:51.332Z,1.60
2023-03-27T12:47:51.321Z,1.40
2023-03-27T12:48:51.277Z,0.80
2023-03-27T12:49:51.271Z,1.20
2023-03-27T12:50:51.270Z,1.40
2023-03-27T12:51:51.312Z,1.10
2023-03-27T12:52:51.249Z,1.60
2023-03-27T12:53:51.332Z,0.70
2023-03-27T12:54:51.238Z,1.50
2023-03-27T12:55:51.226Z,1.90
2023-03-27T12:56:51.646Z,1.00
2023-03-27T12:57:51.303Z,1.00
2023-03-27T12:58:51.208Z,0.70
2023-03-27T12:59:51.202Z,1.00
2023-03-27T13:00:51.197Z,1.40
2023-03-27T13:01:52.567Z,1.10
2023-03-27T13:02:51.269Z,1.30
2023-03-27T13:03:51.272Z,0.80
2023-03-27T13:04:51.170Z,0.80
2023-03-27T13:05:51.162Z,0.70
2023-03-27T13:06:51.156Z,0.70
2023-03-27T13:07:53.516Z,0.80
2023-03-27T13:08:51.138Z,1.20
2023-03-27T13:09:51.157Z,1.20
2023-03-27T13:10:51.128Z,1.20
2023-03-27T13:11:51.133Z,0.90
2023-03-27T13:12:51.114Z,1.20